Time;durP1;ratioP1;P1;durP2;ratioP2;P2;SDS_P1;SDS_P2;PMS_P1;PMS_P2;Temp;Humidity;BMP_temperature;BMP_pressure;BME280_temperature;BME280_humidity;BME280_pressure;Samples;Min_cycle;Max_cycle;Signal;HPM_P1;HPM_P2
2023/10/13 00:01:18;;;;;;;23.10;15.43;;;;;;;;;;5089447;28;20544;-68
2023/10/13 00:03:43;;;;;;;26.17;18.08;;;;;;;;;;5084156;28;20028;-67
2023/10/13 00:06:10;;;;;;;24.77;16.40;;;;;;;;;;5039567;28;20084;-67
2023/10/13 00:08:36;;;;;;;25.40;17.83;;;;;;;;;;5034456;28;20144;-68
2023/10/13 00:11:02;;;;;;;22.38;16.98;;;;;;;;;;5034364;28;20016;-68
2023/10/13 00:13:29;;;;;;;25.73;16.73;;;;;;;;;;5036208;28;20032;-68
2023/10/13 00:15:57;;;;;;;23.40;16.45;;;;;;;;;;5045755;28;20031;-68
2023/10/13 00:18:23;;;;;;;23.25;17.00;;;;;;;;;;5047201;28;20435;-68
2023/10/13 00:20:49;;;;;;;22.75;17.15;;;;;;;;;;5045318;28;20036;-69
2023/10/13 00:23:20;;;;;;;23.85;17.02;;;;;;;;;;5047754;28;20134;-68
2023/10/13 00:25:50;;;;;;;22.50;15.45;;;;;;;;;;5040881;28;20906;-69
2023/10/13 00:28:23;;;;;;;24.50;16.92;;;;;;;;;;5048654;28;20032;-69
2023/10/13 00:30:51;;;;;;;24.50;17.25;;;;;;;;;;5036936;28;20025;-69
2023/10/13 00:33:19;;;;;;;23.77;17.15;;;;;;;;;;5048126;28;20188;-69
2023/10/13 00:35:47;;;;;;;21.20;16.58;;;;;;;;;;5040244;28;20127;-69
2023/10/13 00:38:19;;;;;;;24.73;15.65;;;;;;;;;;5049000;28;20048;-69
2023/10/13 00:40:52;;;;;;;24.63;17.13;;;;;;;;;;5048980;28;20027;-69
2023/10/13 00:48:34;;;;;;;25.67;17.52;;;;;;;;;;5039684;28;20071;-69
2023/10/13 00:51:03;;;;;;;28.65;17.73;;;;;;;;;;5046416;28;20028;-68
2023/10/13 00:53:29;;;;;;;29.55;18.55;;;;;;;;;;5073471;28;20031;-68
2023/10/13 00:55:57;;;;;;;24.23;17.60;;;;;;;;;;5092593;28;20371;-69
2023/10/13 00:58:24;;;;;;;26.20;17.80;;;;;;;;;;5090229;28;20027;-68
2023/10/13 01:00:56;;;;;;;24.85;18.50;;;;;;;;;;5087466;28;20478;-69
2023/10/13 01:03:25;;;;;;;24.83;18.02;;;;;;;;;;5093556;28;20486;-68
2023/10/13 01:05:54;;;;;;;28.48;18.33;;;;;;;;;;5093715;28;20483;-68
2023/10/13 01:08:19;;;;;;;25.45;17.38;;;;;;;;;;5062089;28;20032;-68
2023/10/13 01:10:45;;;;;;;32.00;19.25;;;;;;;;;;5045520;28;20071;-68
2023/10/13 01:13:11;;;;;;;22.20;17.93;;;;;;;;;;5033156;28;20159;-68
2023/10/13 01:15:36;;;;;;;24.10;17.52;;;;;;;;;;5031536;28;20296;-68
2023/10/13 01:18:12;;;;;;;28.23;18.60;;;;;;;;;;5036726;28;20032;-68
2023/10/13 01:20:44;;;;;;;26.65;16.67;;;;;;;;;;5039530;28;20044;-68
2023/10/13 01:23:18;;;;;;;29.63;19.05;;;;;;;;;;5039183;28;20024;-68
2023/10/13 01:25:43;;;;;;;28.23;17.60;;;;;;;;;;5046026;28;20250;-68
2023/10/13 01:28:09;;;;;;;29.45;18.73;;;;;;;;;;5019004;28;20024;-68
2023/10/13 01:30:34;;;;;;;27.73;18.40;;;;;;;;;;5044431;28;20842;-68
2023/10/13 01:33:00;;;;;;;23.60;17.37;;;;;;;;;;5037296;28;20064;-67
2023/10/13 01:35:47;;;;;;;24.45;17.40;;;;;;;;;;5047430;28;20278;-68
2023/10/13 01:38:10;;;;;;;25.40;17.88;;;;;;;;;;5088119;28;20148;-67
2023/10/13 01:40:35;;;;;;;27.80;17.40;;;;;;;;;;5093171;28;20441;-67
2023/10/13 01:43:01;;;;;;;28.23;18.02;;;;;;;;;;5092669;28;20472;-68
2023/10/13 01:45:29;;;;;;;27.35;18.75;;;;;;;;;;5092661;28;20031;-67
2023/10/13 01:47:54;;;;;;;28.83;18.33;;;;;;;;;;5090462;28;20035;-67
2023/10/13 01:50:38;;;;;;;27.50;18.55;;;;;;;;;;5034893;28;20024;-68
2023/10/13 01:53:11;;;;;;;24.08;17.67;;;;;;;;;;5048302;28;20036;-68
2023/10/13 01:55:43;;;;;;;28.52;18.02;;;;;;;;;;5035026;28;20032;-68
2023/10/13 01:58:14;;;;;;;26.77;17.95;;;;;;;;;;5037037;28;20435;-68
2023/10/13 02:00:41;;;;;;;25.77;18.30;;;;;;;;;;5030492;28;20040;-68
2023/10/13 02:03:16;;;;;;;28.90;18.10;;;;;;;;;;5047123;28;20016;-68
2023/10/13 02:05:48;;;;;;;22.63;17.63;;;;;;;;;;5034443;28;20564;-68
2023/10/13 02:08:23;;;;;;;31.00;19.23;;;;;;;;;;5034010;28;20091;-68
2023/10/13 02:10:52;;;;;;;24.73;17.45;;;;;;;;;;5042752;28;20253;-68
2023/10/13 02:13:22;;;;;;;28.00;18.58;;;;;;;;;;5046308;28;20174;-68
2023/10/13 02:15:48;;;;;;;30.60;18.10;;;;;;;;;;5046344;28;20028;-68
2023/10/13 02:18:41;;;;;;;23.98;17.27;;;;;;;;;;5079169;28;20016;-68
2023/10/13 02:21:12;;;;;;;33.38;17.13;;;;;;;;;;5082503;28;20036;-68
2023/10/13 02:23:43;;;;;;;26.17;17.65;;;;;;;;;;5092033;28;20020;-68
2023/10/13 02:26:13;;;;;;;29.20;19.33;;;;;;;;;;5091944;28;20099;-68
2023/10/13 02:28:38;;;;;;;26.08;17.77;;;;;;;;;;5089272;28;20032;-68
2023/10/13 02:31:04;;;;;;;27.98;17.23;;;;;;;;;;5052174;28;20097;-68
2023/10/13 02:33:30;;;;;;;26.10;17.75;;;;;;;;;;5040692;28;20875;-68
2023/10/13 02:36:05;;;;;;;29.92;17.67;;;;;;;;;;5082664;28;20016;-68
2023/10/13 02:41:17;;;;;;;25.73;17.20;;;;;;;;;;5078804;28;20106;-68
2023/10/13 02:43:43;;;;;;;31.10;18.20;;;;;;;;;;5044150;28;20028;-68
2023/10/13 02:46:09;;;;;;;27.88;17.63;;;;;;;;;;5040045;28;20968;-68
2023/10/13 02:48:41;;;;;;;28.02;17.45;;;;;;;;;;5033025;28;20035;-68
2023/10/13 02:51:17;;;;;;;31.60;17.70;;;;;;;;;;5042583;28;20816;-69
2023/10/13 02:53:46;;;;;;;27.00;18.50;;;;;;;;;;5041392;28;20028;-68
2023/10/13 02:56:13;;;;;;;30.38;17.95;;;;;;;;;;5043724;28;20019;-68
2023/10/13 02:58:38;;;;;;;30.42;17.52;;;;;;;;;;5043540;28;20020;-68
2023/10/13 03:01:10;;;;;;;29.30;18.15;;;;;;;;;;5037755;28;20089;-68
2023/10/13 03:03:35;;;;;;;25.90;17.90;;;;;;;;;;5037840;28;20034;-68
2023/10/13 03:06:00;;;;;;;30.08;17.70;;;;;;;;;;5035886;28;20016;-68
2023/10/13 03:08:27;;;;;;;29.70;16.77;;;;;;;;;;5052045;28;20085;-68
2023/10/13 03:10:54;;;;;;;25.58;18.13;;;;;;;;;;5048500;28;20343;-68
2023/10/13 03:13:19;;;;;;;26.83;17.35;;;;;;;;;;5038226;28;20020;-68
2023/10/13 03:15:47;;;;;;;28.15;18.13;;;;;;;;;;5034490;28;20016;-68
2023/10/13 03:18:18;;;;;;;27.35;17.85;;;;;;;;;;5082153;28;20080;-68
2023/10/13 03:20:43;;;;;;;28.83;17.08;;;;;;;;;;5090612;28;20031;-68
2023/10/13 03:23:09;;;;;;;25.70;16.52;;;;;;;;;;5084442;28;20028;-68
2023/10/13 03:25:42;;;;;;;32.70;17.63;;;;;;;;;;5046380;28;20126;-69
2023/10/13 03:28:10;;;;;;;26.38;16.30;;;;;;;;;;5039968;28;20036;-68
2023/10/13 03:30:35;;;;;;;25.88;17.88;;;;;;;;;;5041964;28;20113;-67
2023/10/13 03:33:09;;;;;;;26.08;17.02;;;;;;;;;;5046850;28;20028;-68
2023/10/13 03:35:38;;;;;;;24.52;15.85;;;;;;;;;;5036677;28;20129;-68
2023/10/13 03:38:04;;;;;;;24.60;16.50;;;;;;;;;;5089296;28;20020;-67
2023/10/13 03:43:06;;;;;;;28.50;16.58;;;;;;;;;;5091637;28;20425;-68
2023/10/13 03:45:39;;;;;;;22.33;15.68;;;;;;;;;;5089414;28;20485;-68
2023/10/13 03:51:08;;;;;;;27.33;16.25;;;;;;;;;;5073120;28;20032;-68
2023/10/13 03:53:34;;;;;;;22.33;15.38;;;;;;;;;;5091401;28;20025;-68
2023/10/13 03:56:08;;;;;;;23.27;15.32;;;;;;;;;;5091246;28;20230;-68
2023/10/13 03:58:36;;;;;;;23.50;15.25;;;;;;;;;;5094301;28;20024;-67
2023/10/13 04:01:03;;;;;;;28.20;16.85;;;;;;;;;;5094501;28;20028;-67
2023/10/13 04:03:33;;;;;;;24.85;15.80;;;;;;;;;;5094648;28;20109;-67
2023/10/13 04:06:06;;;;;;;23.27;15.73;;;;;;;;;;5076590;28;20470;-68
2023/10/13 04:09:29;;;;;;;30.08;15.52;;;;;;;;;;5051949;28;20039;-68
2023/10/13 04:15:14;;;;;;;23.63;16.30;;;;;;;;;;5048099;28;20030;-68
2023/10/13 04:36:13;;;;;;;22.63;14.32;;;;;;;;;;5061273;28;20043;-68
2023/10/13 04:38:55;;;;;;;27.20;15.98;;;;;;;;;;5071175;28;20031;-68
2023/10/13 04:41:23;;;;;;;24.30;14.50;;;;;;;;;;5091882;28;20039;-67
2023/10/13 04:44:04;;;;;;;19.23;14.07;;;;;;;;;;5090721;28;20464;-68
2023/10/13 04:46:39;;;;;;;21.85;13.82;;;;;;;;;;5092073;28;20032;-68
2023/10/13 04:49:09;;;;;;;20.02;13.45;;;;;;;;;;5049367;28;20024;-67
2023/10/13 04:51:58;;;;;;;26.40;14.55;;;;;;;;;;5048449;28;20035;-67
2023/10/13 04:54:33;;;;;;;19.08;14.15;;;;;;;;;;5044945;28;20127;-68
2023/10/13 05:46:48;;;;;;;17.05;11.07;;;;;;;;;;5092996;28;20072;-66
2023/10/13 06:29:31;;;;;;;19.38;10.43;;;;;;;;;;5046242;28;20162;-67
2023/10/13 06:31:57;;;;;;;21.08;10.23;;;;;;;;;;5037921;28;20046;-67
2023/10/13 06:34:37;;;;;;;17.17;9.68;;;;;;;;;;5046691;28;20028;-67
2023/10/13 06:37:03;;;;;;;21.77;10.35;;;;;;;;;;5048615;28;20035;-68
2023/10/13 06:39:37;;;;;;;22.65;9.85;;;;;;;;;;5045045;28;20012;-67
2023/10/13 06:42:03;;;;;;;16.08;10.50;;;;;;;;;;5044813;28;20135;-67
2023/10/13 06:44:32;;;;;;;22.30;10.45;;;;;;;;;;5045003;28;20854;-67
2023/10/13 06:46:57;;;;;;;19.63;11.32;;;;;;;;;;5039870;28;20036;-67
2023/10/13 06:49:23;;;;;;;23.15;10.27;;;;;;;;;;5036127;28;20134;-67
2023/10/13 06:51:49;;;;;;;18.00;9.98;;;;;;;;;;5047357;28;20043;-67
2023/10/13 06:54:20;;;;;;;15.10;11.02;;;;;;;;;;5046520;28;20035;-67
2023/10/13 06:56:46;;;;;;;20.70;10.63;;;;;;;;;;5047748;28;20081;-67
2023/10/13 06:59:13;;;;;;;21.30;10.90;;;;;;;;;;5038411;28;20026;-68
2023/10/13 07:01:39;;;;;;;18.48;10.60;;;;;;;;;;5046652;28;20016;-67
2023/10/13 07:04:12;;;;;;;21.65;10.85;;;;;;;;;;5045685;28;20087;-68
2023/10/13 07:06:42;;;;;;;17.30;10.32;;;;;;;;;;5044457;28;20089;-67
2023/10/13 07:09:15;;;;;;;18.35;10.63;;;;;;;;;;5047849;28;20020;-68
2023/10/13 07:11:42;;;;;;;21.10;10.50;;;;;;;;;;5045106;28;20032;-68
2023/10/13 07:14:11;;;;;;;25.23;11.27;;;;;;;;;;5043293;28;20272;-67
2023/10/13 07:16:46;;;;;;;17.00;9.20;;;;;;;;;;5043639;28;20024;-68
2023/10/13 07:19:11;;;;;;;21.30;11.35;;;;;;;;;;5040538;28;20140;-68
2023/10/13 07:21:45;;;;;;;21.33;10.15;;;;;;;;;;5042984;28;20926;-67
2023/10/13 07:24:11;;;;;;;15.48;9.30;;;;;;;;;;5040219;28;20020;-67
2023/10/13 07:26:42;;;;;;;19.80;9.60;;;;;;;;;;5045635;28;20023;-66
2023/10/13 07:29:09;;;;;;;20.05;9.70;;;;;;;;;;5045648;28;20870;-66
2023/10/13 07:31:34;;;;;;;18.58;9.50;;;;;;;;;;5045720;28;20155;-67
2023/10/13 07:34:12;;;;;;;20.27;9.27;;;;;;;;;;5047125;28;20024;-67
2023/10/13 07:36:43;;;;;;;15.45;9.07;;;;;;;;;;5039092;28;20040;-67
2023/10/13 07:39:21;;;;;;;13.05;9.20;;;;;;;;;;5039062;28;20027;-67
2023/10/13 07:41:51;;;;;;;15.75;8.48;;;;;;;;;;5033967;28;20037;-67
2023/10/13 07:44:16;;;;;;;17.88;9.25;;;;;;;;;;5037517;28;20139;-67
2023/10/13 07:46:46;;;;;;;16.17;8.45;;;;;;;;;;5039717;28;20035;-66
2023/10/13 07:49:11;;;;;;;14.32;8.30;;;;;;;;;;5038800;28;20030;-67
2023/10/13 07:51:48;;;;;;;14.63;7.53;;;;;;;;;;5035718;28;20028;-67
2023/10/13 07:54:21;;;;;;;16.80;8.82;;;;;;;;;;5044649;28;20278;-68
2023/10/13 07:56:47;;;;;;;17.25;8.10;;;;;;;;;;5059962;28;20116;-66
2023/10/13 07:59:13;;;;;;;16.35;7.60;;;;;;;;;;5047308;28;21236;-67
2023/10/13 08:01:42;;;;;;;15.43;7.88;;;;;;;;;;5038261;28;20056;-67
2023/10/13 08:06:36;;;;;;;18.05;6.75;;;;;;;;;;5042815;28;20769;-67
2023/10/13 08:09:08;;;;;;;12.65;6.22;;;;;;;;;;5039526;28;20032;-67
2023/10/13 08:11:34;;;;;;;12.05;6.30;;;;;;;;;;5045077;28;20028;-67
2023/10/13 08:14:10;;;;;;;16.80;6.88;;;;;;;;;;5036605;28;20056;-67
2023/10/13 08:17:35;;;;;;;9.50;5.50;;;;;;;;;;5042632;28;20031;-68
2023/10/13 08:19:50;;;;;;;13.52;5.53;;;;;;;;;;5027229;28;20073;-67
2023/10/13 08:48:07;;;;;;;12.23;6.38;;;;;;;;;;5093295;28;21494;-67
2023/10/13 09:01:35;;;;;;;10.77;6.43;;;;;;;;;;5091564;28;20085;-67
2023/10/13 09:06:47;;;;;;;10.37;6.47;;;;;;;;;;5082939;28;20156;-67
2023/10/13 09:09:26;;;;;;;10.98;6.22;;;;;;;;;;5092127;28;20032;-67
2023/10/13 09:12:04;;;;;;;11.27;6.05;;;;;;;;;;5062110;28;20059;-67
2023/10/13 09:14:33;;;;;;;12.10;6.63;;;;;;;;;;5048486;28;20082;-67
2023/10/13 09:17:08;;;;;;;11.02;6.68;;;;;;;;;;5089885;28;20024;-67
2023/10/13 09:19:45;;;;;;;10.88;6.35;;;;;;;;;;5084906;28;20016;-67
2023/10/13 09:22:24;;;;;;;8.60;5.97;;;;;;;;;;5088251;28;20070;-67
2023/10/13 09:24:51;;;;;;;10.32;6.38;;;;;;;;;;5092721;28;20484;-67
2023/10/13 09:27:16;;;;;;;13.07;6.13;;;;;;;;;;5087815;28;20386;-67
2023/10/13 09:29:44;;;;;;;11.98;6.95;;;;;;;;;;5088584;28;20108;-67
2023/10/13 09:32:12;;;;;;;11.82;7.50;;;;;;;;;;5089479;28;20023;-67
2023/10/13 09:34:40;;;;;;;11.60;7.28;;;;;;;;;;5093051;28;20111;-67
2023/10/13 09:37:06;;;;;;;9.77;6.03;;;;;;;;;;5089959;28;20063;-67
2023/10/13 09:39:44;;;;;;;11.13;7.15;;;;;;;;;;5050056;28;20129;-67
2023/10/13 09:42:10;;;;;;;9.93;6.95;;;;;;;;;;5034544;28;20536;-67
2023/10/13 09:44:37;;;;;;;12.27;7.30;;;;;;;;;;5048450;28;20031;-67
2023/10/13 09:47:09;;;;;;;12.45;6.60;;;;;;;;;;5048167;28;20321;-67
2023/10/13 09:49:49;;;;;;;12.80;6.22;;;;;;;;;;5043322;28;21003;-67
2023/10/13 09:52:19;;;;;;;10.10;7.03;;;;;;;;;;5061974;28;20039;-67
2023/10/13 09:55:10;;;;;;;12.45;6.70;;;;;;;;;;5040932;28;20288;-66
2023/10/13 09:57:40;;;;;;;9.77;6.03;;;;;;;;;;5056299;28;20486;-67
2023/10/13 10:00:44;;;;;;;15.15;6.82;;;;;;;;;;5081504;28;20840;-67
2023/10/13 10:03:19;;;;;;;11.90;6.95;;;;;;;;;;5076373;28;20131;-67
2023/10/13 10:05:59;;;;;;;11.10;6.78;;;;;;;;;;5092206;28;20031;-67
2023/10/13 10:08:32;;;;;;;10.00;6.30;;;;;;;;;;5090581;28;20531;-67
2023/10/13 10:11:15;;;;;;;10.57;6.10;;;;;;;;;;5061517;28;20048;-66
2023/10/13 10:13:54;;;;;;;11.15;6.72;;;;;;;;;;5044356;28;20028;-67
2023/10/13 10:16:23;;;;;;;13.85;6.25;;;;;;;;;;5082671;28;20032;-67
2023/10/13 10:18:59;;;;;;;9.07;6.35;;;;;;;;;;5091202;28;20070;-67
2023/10/13 10:21:32;;;;;;;10.00;6.22;;;;;;;;;;5091544;28;20032;-67
2023/10/13 10:23:57;;;;;;;11.50;6.47;;;;;;;;;;5077448;28;20451;-67
2023/10/13 10:26:25;;;;;;;14.07;5.83;;;;;;;;;;5091790;28;20070;-66
2023/10/13 10:28:50;;;;;;;11.63;6.35;;;;;;;;;;5088396;28;20309;-67
2023/10/13 10:31:19;;;;;;;15.98;6.82;;;;;;;;;;5091210;28;20028;-66
2023/10/13 10:33:46;;;;;;;10.43;5.90;;;;;;;;;;5091420;28;20023;-67
2023/10/13 10:36:14;;;;;;;9.23;5.90;;;;;;;;;;5091675;28;20016;-67
2023/10/13 10:38:53;;;;;;;13.82;5.93;;;;;;;;;;5090626;28;20107;-67
2023/10/13 10:41:25;;;;;;;12.07;6.10;;;;;;;;;;5085785;28;20112;-67
2023/10/13 10:43:50;;;;;;;11.13;6.20;;;;;;;;;;5090098;28;20044;-66
2023/10/13 10:46:25;;;;;;;10.87;6.13;;;;;;;;;;5091643;28;20015;-67
2023/10/13 10:48:56;;;;;;;9.65;5.57;;;;;;;;;;5074039;28;20298;-67
2023/10/13 10:51:21;;;;;;;8.95;6.25;;;;;;;;;;5043476;28;20032;-66
2023/10/13 10:53:51;;;;;;;11.82;5.57;;;;;;;;;;5035867;28;20069;-66
2023/10/13 10:56:20;;;;;;;10.00;5.28;;;;;;;;;;5019315;28;20814;-67
2023/10/13 10:58:55;;;;;;;12.70;5.72;;;;;;;;;;5046881;28;20126;-67
2023/10/13 11:01:21;;;;;;;8.15;5.10;;;;;;;;;;5043958;28;20063;-66
2023/10/13 11:03:59;;;;;;;16.13;5.45;;;;;;;;;;5041850;28;20795;-66
2023/10/13 11:06:26;;;;;;;17.63;5.55;;;;;;;;;;5061850;28;20039;-67
2023/10/13 11:09:01;;;;;;;15.70;5.47;;;;;;;;;;5066560;28;21014;-67
2023/10/13 11:11:34;;;;;;;9.90;5.10;;;;;;;;;;5043185;28;20020;-67
2023/10/13 11:14:13;;;;;;;10.40;4.33;;;;;;;;;;5038058;28;20135;-67
2023/10/13 11:16:44;;;;;;;8.52;5.22;;;;;;;;;;5044612;28;20127;-66
2023/10/13 11:19:11;;;;;;;11.13;5.28;;;;;;;;;;5035225;28;20139;-67
2023/10/13 11:21:37;;;;;;;9.45;5.32;;;;;;;;;;5031674;28;20090;-67
2023/10/13 11:24:08;;;;;;;10.50;4.72;;;;;;;;;;5048690;28;20085;-67
2023/10/13 11:26:34;;;;;;;13.27;5.07;;;;;;;;;;5046678;28;20028;-66
2023/10/13 11:29:01;;;;;;;11.38;4.97;;;;;;;;;;5036822;28;20784;-66
2023/10/13 11:31:26;;;;;;;11.07;5.10;;;;;;;;;;5066262;28;20027;-66
2023/10/13 11:33:56;;;;;;;15.33;5.57;;;;;;;;;;5090686;28;20031;-66
2023/10/13 11:36:31;;;;;;;16.60;5.32;;;;;;;;;;5085716;28;20032;-66
2023/10/13 11:38:57;;;;;;;15.55;5.68;;;;;;;;;;5090521;28;20394;-66
2023/10/13 11:41:23;;;;;;;12.30;4.72;;;;;;;;;;5090315;28;20021;-66
2023/10/13 11:46:48;;;;;;;12.07;5.00;;;;;;;;;;5090751;28;20056;-66
2023/10/13 11:49:37;;;;;;;12.55;5.15;;;;;;;;;;5078194;28;20036;-66
2023/10/13 11:52:15;;;;;;;9.38;4.80;;;;;;;;;;5087261;28;20027;-66
2023/10/13 11:54:41;;;;;;;11.50;5.22;;;;;;;;;;5089723;28;20077;-66
2023/10/13 11:57:07;;;;;;;9.90;4.50;;;;;;;;;;5089732;28;20110;-66
2023/10/13 11:59:36;;;;;;;9.07;4.97;;;;;;;;;;5078899;28;20020;-66
2023/10/13 12:07:45;;;;;;;8.57;4.60;;;;;;;;;;5022395;28;20567;-66
2023/10/13 12:10:59;;;;;;;12.02;4.70;;;;;;;;;;5004060;28;20112;-67
2023/10/13 12:12:56;;;;;;;11.15;4.97;;;;;;;;;;5053389;28;20035;-66
2023/10/13 12:15:36;;;;;;;11.87;4.63;;;;;;;;;;5088492;28;20020;-66
2023/10/13 12:18:03;;;;;;;11.93;5.00;;;;;;;;;;5090568;28;20360;-66
2023/10/13 12:20:35;;;;;;;14.27;4.82;;;;;;;;;;5093210;28;20028;-67
2023/10/13 12:23:15;;;;;;;11.48;5.72;;;;;;;;;;5089967;28;20027;-66
2023/10/13 12:25:59;;;;;;;12.43;5.38;;;;;;;;;;5092888;28;20032;-67
2023/10/13 12:28:26;;;;;;;15.15;6.30;;;;;;;;;;5083611;28;20056;-67
2023/10/13 12:30:52;;;;;;;10.27;5.45;;;;;;;;;;5091700;28;20036;-66
2023/10/13 12:33:24;;;;;;;11.77;5.18;;;;;;;;;;5092993;28;20482;-66
2023/10/13 12:52:31;;;;;;;11.95;5.88;;;;;;;;;;5092213;28;20698;-67
2023/10/13 12:57:32;;;;;;;10.63;5.47;;;;;;;;;;5086104;28;20094;-67
2023/10/13 12:59:57;;;;;;;11.80;4.90;;;;;;;;;;5087554;28;20055;-67
2023/10/13 13:02:26;;;;;;;11.87;5.47;;;;;;;;;;5091397;28;20059;-67
2023/10/13 13:04:56;;;;;;;12.98;4.72;;;;;;;;;;5091978;28;20027;-67
2023/10/13 13:07:22;;;;;;;10.77;5.05;;;;;;;;;;5068120;28;20025;-67
2023/10/13 13:09:48;;;;;;;15.02;6.00;;;;;;;;;;5086908;28;20028;-68
2023/10/13 13:12:13;;;;;;;8.57;5.30;;;;;;;;;;5093003;28;20024;-68
2023/10/13 13:14:41;;;;;;;11.70;5.43;;;;;;;;;;5092875;28;20068;-67
2023/10/13 13:17:06;;;;;;;12.32;5.07;;;;;;;;;;5080078;28;20103;-67
2023/10/13 13:19:41;;;;;;;9.63;4.70;;;;;;;;;;5092350;28;20165;-67
2023/10/13 13:22:13;;;;;;;10.73;4.95;;;;;;;;;;5092623;28;20398;-67
2023/10/13 13:24:43;;;;;;;10.57;4.88;;;;;;;;;;5091967;28;20036;-67
2023/10/13 13:27:08;;;;;;;12.85;5.13;;;;;;;;;;5089103;28;20608;-68
2023/10/13 13:29:37;;;;;;;10.32;4.93;;;;;;;;;;5088769;28;20103;-67
2023/10/13 13:32:05;;;;;;;12.55;4.82;;;;;;;;;;5091504;28;20501;-67
2023/10/13 13:34:30;;;;;;;11.02;4.85;;;;;;;;;;5092827;28;20106;-67
2023/10/13 13:37:00;;;;;;;10.07;4.75;;;;;;;;;;5090243;28;20095;-67
2023/10/13 13:39:30;;;;;;;9.10;4.65;;;;;;;;;;5092979;28;20024;-66
2023/10/13 13:41:58;;;;;;;12.98;5.35;;;;;;;;;;5092094;28;20152;-67
2023/10/13 13:44:36;;;;;;;10.45;4.95;;;;;;;;;;5091619;28;20032;-67
2023/10/13 13:47:05;;;;;;;9.43;5.35;;;;;;;;;;5086925;28;20039;-67
2023/10/13 13:49:39;;;;;;;9.80;4.88;;;;;;;;;;5088440;28;20023;-67
2023/10/13 13:52:05;;;;;;;8.25;4.97;;;;;;;;;;5086678;28;20389;-67
2023/10/13 13:54:30;;;;;;;12.38;4.63;;;;;;;;;;5090018;28;20102;-67
2023/10/13 13:56:57;;;;;;;11.88;5.18;;;;;;;;;;5091514;28;20031;-67
2023/10/13 13:59:22;;;;;;;9.68;4.90;;;;;;;;;;5091298;28;20123;-67
2023/10/13 14:01:47;;;;;;;11.77;4.60;;;;;;;;;;5092195;28;20110;-67
2023/10/13 14:04:17;;;;;;;8.70;4.65;;;;;;;;;;5090681;28;20020;-67
2023/10/13 14:06:44;;;;;;;8.73;5.55;;;;;;;;;;5091861;28;20085;-68
2023/10/13 14:09:16;;;;;;;13.73;5.10;;;;;;;;;;5091047;28;20028;-67
2023/10/13 14:16:51;;;;;;;10.97;5.00;;;;;;;;;;5090946;28;20390;-67
2023/10/13 14:19:28;;;;;;;10.82;4.82;;;;;;;;;;5089934;28;20388;-67
2023/10/13 14:21:53;;;;;;;6.80;4.90;;;;;;;;;;5091266;28;20020;-67
2023/10/13 14:24:27;;;;;;;11.33;5.10;;;;;;;;;;5091197;28;20372;-67
2023/10/13 14:26:52;;;;;;;12.68;4.70;;;;;;;;;;5092077;28;20444;-67
2023/10/13 14:29:18;;;;;;;8.75;4.90;;;;;;;;;;5079345;28;20036;-65
2023/10/13 14:31:43;;;;;;;13.97;5.43;;;;;;;;;;5090296;28;20012;-65
2023/10/13 14:34:09;;;;;;;11.75;4.97;;;;;;;;;;5087311;28;20020;-66
2023/10/13 14:36:34;;;;;;;8.65;4.82;;;;;;;;;;5090959;28;20043;-64
2023/10/13 14:39:00;;;;;;;7.10;4.23;;;;;;;;;;5090281;28;20028;-64
2023/10/13 14:41:25;;;;;;;9.25;5.32;;;;;;;;;;5089342;28;20679;-64
2023/10/13 14:43:51;;;;;;;8.75;4.50;;;;;;;;;;5090864;28;20020;-65
2023/10/13 14:46:16;;;;;;;7.45;4.53;;;;;;;;;;5091324;28;20039;-66
2023/10/13 14:48:44;;;;;;;10.32;4.85;;;;;;;;;;5089575;28;20587;-66
2023/10/13 14:51:12;;;;;;;13.40;4.95;;;;;;;;;;5091457;28;20028;-65
2023/10/13 14:53:41;;;;;;;13.38;5.00;;;;;;;;;;5086080;28;20105;-64
2023/10/13 14:56:08;;;;;;;10.52;5.20;;;;;;;;;;5088682;28;20241;-66
2023/10/13 14:58:33;;;;;;;10.02;5.43;;;;;;;;;;5088038;28;21580;-67
2023/10/13 15:01:00;;;;;;;12.90;5.10;;;;;;;;;;5084385;28;20106;-67
2023/10/13 15:03:26;;;;;;;11.95;5.05;;;;;;;;;;5080252;28;20625;-67
2023/10/13 15:05:51;;;;;;;8.93;4.63;;;;;;;;;;5091411;28;20032;-67
2023/10/13 15:08:18;;;;;;;8.73;4.77;;;;;;;;;;5080330;28;20664;-66
2023/10/13 15:10:44;;;;;;;11.75;4.68;;;;;;;;;;5090511;28;20369;-67
2023/10/13 15:13:10;;;;;;;8.77;5.13;;;;;;;;;;5087368;28;20111;-66
2023/10/13 15:15:35;;;;;;;10.87;5.17;;;;;;;;;;5091005;28;20111;-67
2023/10/13 15:18:01;;;;;;;7.85;4.47;;;;;;;;;;5089547;28;20280;-67
2023/10/13 15:20:26;;;;;;;10.43;4.70;;;;;;;;;;5090896;28;20032;-66
2023/10/13 15:22:59;;;;;;;7.97;5.00;;;;;;;;;;5089493;28;20028;-66
2023/10/13 15:25:38;;;;;;;9.52;4.63;;;;;;;;;;5091181;28;20052;-66
2023/10/13 15:28:05;;;;;;;8.35;4.93;;;;;;;;;;5083781;28;20059;-66
2023/10/13 15:30:44;;;;;;;14.30;4.75;;;;;;;;;;5073845;28;20028;-66
2023/10/13 15:33:11;;;;;;;7.45;4.47;;;;;;;;;;5046571;28;20193;-67
2023/10/13 15:35:38;;;;;;;9.10;4.72;;;;;;;;;;5038073;28;20025;-66
2023/10/13 15:38:03;;;;;;;8.48;4.28;;;;;;;;;;5047520;28;20108;-67
2023/10/13 15:40:28;;;;;;;7.80;4.60;;;;;;;;;;5034083;28;20040;-66
2023/10/13 15:42:59;;;;;;;9.83;4.37;;;;;;;;;;5047722;28;20853;-66
2023/10/13 15:45:24;;;;;;;8.10;4.93;;;;;;;;;;5047883;28;20270;-66
2023/10/13 15:47:49;;;;;;;8.95;4.60;;;;;;;;;;5041758;28;20922;-66
2023/10/13 15:50:16;;;;;;;8.43;4.78;;;;;;;;;;5039499;28;20886;-66
2023/10/13 15:52:45;;;;;;;10.98;4.68;;;;;;;;;;5046858;28;20038;-66
2023/10/13 15:55:13;;;;;;;9.27;4.57;;;;;;;;;;5041100;28;20083;-67
2023/10/13 15:57:38;;;;;;;6.35;4.43;;;;;;;;;;5089287;28;20027;-67
2023/10/13 16:00:22;;;;;;;14.18;5.15;;;;;;;;;;5094213;28;20031;-66
2023/10/13 16:02:50;;;;;;;8.10;4.47;;;;;;;;;;5088409;28;20086;-67
2023/10/13 16:05:15;;;;;;;8.27;4.30;;;;;;;;;;5094284;28;20153;-66
2023/10/13 16:07:41;;;;;;;10.15;4.70;;;;;;;;;;5090021;28;20492;-67
2023/10/13 16:10:11;;;;;;;10.85;4.25;;;;;;;;;;5093107;28;20126;-67
2023/10/13 16:12:36;;;;;;;8.13;4.15;;;;;;;;;;5093833;28;20031;-67
2023/10/13 16:15:01;;;;;;;8.30;4.27;;;;;;;;;;5093919;28;20401;-66
2023/10/13 16:17:28;;;;;;;7.13;4.37;;;;;;;;;;5092521;28;20264;-66
2023/10/13 16:19:53;;;;;;;7.57;4.00;;;;;;;;;;5094009;28;20617;-68
2023/10/13 16:22:19;;;;;;;10.85;4.05;;;;;;;;;;5093693;28;20026;-66
2023/10/13 16:24:47;;;;;;;9.13;4.97;;;;;;;;;;5093047;28;20038;-68
2023/10/13 16:27:14;;;;;;;9.70;4.85;;;;;;;;;;5093617;28;20270;-68
2023/10/13 16:29:42;;;;;;;9.80;4.72;;;;;;;;;;5089227;28;20027;-66
2023/10/13 16:32:08;;;;;;;9.65;4.35;;;;;;;;;;5093581;28;20043;-66
2023/10/13 16:34:34;;;;;;;8.65;5.20;;;;;;;;;;5094331;28;20024;-64
2023/10/13 16:37:04;;;;;;;10.38;5.00;;;;;;;;;;5091949;28;20106;-65
2023/10/13 16:39:30;;;;;;;12.45;5.45;;;;;;;;;;5093469;28;20031;-65
2023/10/13 16:41:55;;;;;;;9.95;5.03;;;;;;;;;;5092999;28;20032;-65
2023/10/13 16:44:25;;;;;;;10.27;5.33;;;;;;;;;;5092977;28;20467;-65
2023/10/13 16:46:50;;;;;;;8.95;5.38;;;;;;;;;;5093972;28;20633;-66
2023/10/13 16:49:16;;;;;;;10.20;5.43;;;;;;;;;;5090860;28;20016;-66
2023/10/13 16:51:41;;;;;;;11.63;5.40;;;;;;;;;;5092516;28;20031;-64
2023/10/13 16:54:07;;;;;;;10.80;5.57;;;;;;;;;;5093297;28;20036;-66
2023/10/13 16:56:35;;;;;;;13.77;5.50;;;;;;;;;;5093515;28;20482;-66
2023/10/13 16:59:04;;;;;;;9.85;5.57;;;;;;;;;;5093120;28;20027;-66
2023/10/13 17:01:30;;;;;;;11.75;5.18;;;;;;;;;;5092981;28;20027;-65
2023/10/13 17:03:56;;;;;;;10.40;6.32;;;;;;;;;;5090162;28;20025;-66
2023/10/13 17:06:23;;;;;;;12.57;6.35;;;;;;;;;;5089831;28;20098;-66
2023/10/13 17:08:48;;;;;;;12.20;5.35;;;;;;;;;;5093044;28;20027;-66
2023/10/13 17:11:14;;;;;;;9.93;5.80;;;;;;;;;;5093092;28;20031;-66
2023/10/13 17:13:40;;;;;;;9.43;5.50;;;;;;;;;;5093514;28;20081;-68
2023/10/13 17:16:15;;;;;;;9.23;5.25;;;;;;;;;;5092647;28;20560;-65
2023/10/13 17:18:41;;;;;;;11.57;5.25;;;;;;;;;;5085087;28;20024;-66
2023/10/13 17:21:19;;;;;;;8.15;5.63;;;;;;;;;;5092417;28;20020;-66
2023/10/13 17:23:45;;;;;;;14.60;5.88;;;;;;;;;;5093205;28;20102;-66
2023/10/13 17:26:12;;;;;;;13.77;5.80;;;;;;;;;;5092929;28;20103;-66
2023/10/13 17:28:38;;;;;;;8.65;6.07;;;;;;;;;;5086634;28;20081;-67
2023/10/13 17:31:04;;;;;;;16.73;6.75;;;;;;;;;;5090976;28;20371;-64
2023/10/13 17:33:29;;;;;;;11.90;6.45;;;;;;;;;;5091158;28;20012;-64
2023/10/13 17:35:54;;;;;;;11.87;6.10;;;;;;;;;;5092358;28;20053;-64
2023/10/13 17:38:19;;;;;;;10.07;5.97;;;;;;;;;;5091783;28;20027;-64
2023/10/13 17:40:45;;;;;;;17.23;7.03;;;;;;;;;;5092243;28;20444;-64
2023/10/13 17:43:10;;;;;;;14.18;6.68;;;;;;;;;;5090916;28;20841;-64
2023/10/13 17:45:35;;;;;;;12.80;6.00;;;;;;;;;;5091731;28;20035;-65
2023/10/13 17:48:00;;;;;;;8.10;5.68;;;;;;;;;;5090570;28;20390;-64
2023/10/13 17:50:26;;;;;;;18.33;6.65;;;;;;;;;;5089326;28;20027;-65
2023/10/13 17:52:51;;;;;;;9.63;5.40;;;;;;;;;;5080762;28;20177;-65
2023/10/13 17:55:17;;;;;;;8.95;5.78;;;;;;;;;;5089919;28;20027;-65
2023/10/13 17:57:42;;;;;;;11.00;5.75;;;;;;;;;;5091280;28;20032;-66
2023/10/13 18:00:14;;;;;;;13.15;6.15;;;;;;;;;;5091566;28;20185;-65
2023/10/13 18:02:42;;;;;;;10.30;7.05;;;;;;;;;;5091613;28;20039;-64